Terminal Aerodrome Forecast
Issued by NWS

Home | Current Version | Previous Version | Graphics & Text | Print | Product List | Glossary On
Versions: 1 2 3 4 5 6 7 8 9 10 11 12 13 14 15 16 17 18 19 20 21 22 23 24 25
000
FTUS45 KGGW 111100
TAFOLF
TAF
KOLF 111120Z 1112/1212 VRB06KT P6SM -SHRA SCT060 BKN100
      TEMPO 1112/1114 5SM -TSRA BKN100CB
     FM111500 35009KT P6SM SCT140
     FM120300 VRB05KT P6SM SCT200=

USA.gov is the U.S. government's official web portal to all federal, state and local government web resources and services.